sensor_id;sensor_type;location;lat;lon;timestamp;P1;durP1;ratioP1;P2;durP2;ratioP2
80698;SDS011;70062;51.658;5.658;2023-08-21T00:01:41;0.00;;;0.00;;
80698;SDS011;70062;51.658;5.658;2023-08-21T00:04:06;0.00;;;0.00;;
80698;SDS011;70062;51.658;5.658;2023-08-21T00:06:32;0.00;;;0.00;;
80698;SDS011;70062;51.658;5.658;2023-08-21T00:08:57;0.00;;;0.00;;
80698;SDS011;70062;51.658;5.658;2023-08-21T00:11:23;0.00;;;0.00;;
80698;SDS011;70062;51.658;5.658;2023-08-21T00:13:48;0.00;;;0.00;;
80698;SDS011;70062;51.658;5.658;2023-08-21T00:16:14;0.00;;;0.00;;
80698;SDS011;70062;51.658;5.658;2023-08-21T00:18:41;0.00;;;0.00;;
80698;SDS011;70062;51.658;5.658;2023-08-21T00:21:06;0.00;;;0.00;;
80698;SDS011;70062;51.658;5.658;2023-08-21T00:23:31;0.00;;;0.00;;
80698;SDS011;70062;51.658;5.658;2023-08-21T00:25:57;0.00;;;0.00;;
80698;SDS011;70062;51.658;5.658;2023-08-21T00:28:22;0.00;;;0.00;;
80698;SDS011;70062;51.658;5.658;2023-08-21T00:30:48;0.00;;;0.00;;
80698;SDS011;70062;51.658;5.658;2023-08-21T00:33:13;0.00;;;0.00;;
80698;SDS011;70062;51.658;5.658;2023-08-21T00:35:39;0.00;;;0.00;;
80698;SDS011;70062;51.658;5.658;2023-08-21T00:38:04;0.00;;;0.00;;
80698;SDS011;70062;51.658;5.658;2023-08-21T00:40:30;0.00;;;0.00;;
80698;SDS011;70062;51.658;5.658;2023-08-21T00:42:56;0.00;;;0.00;;
80698;SDS011;70062;51.658;5.658;2023-08-21T00:45:21;0.00;;;0.00;;
80698;SDS011;70062;51.658;5.658;2023-08-21T00:47:47;0.00;;;0.00;;
80698;SDS011;70062;51.658;5.658;2023-08-21T00:50:12;0.00;;;0.00;;
80698;SDS011;70062;51.658;5.658;2023-08-21T00:52:39;0.00;;;0.00;;
80698;SDS011;70062;51.658;5.658;2023-08-21T00:55:06;0.00;;;0.00;;
80698;SDS011;70062;51.658;5.658;2023-08-21T00:57:32;0.00;;;0.00;;
80698;SDS011;70062;51.658;5.658;2023-08-21T00:59:59;0.00;;;0.00;;
80698;SDS011;70062;51.658;5.658;2023-08-21T01:02:26;0.00;;;0.00;;
80698;SDS011;70062;51.658;5.658;2023-08-21T01:04:51;0.00;;;0.00;;
80698;SDS011;70062;51.658;5.658;2023-08-21T01:07:17;0.00;;;0.00;;
80698;SDS011;70062;51.658;5.658;2023-08-21T01:14:59;0.00;;;0.00;;
80698;SDS011;70062;51.658;5.658;2023-08-21T01:19:55;0.00;;;0.00;;
80698;SDS011;70062;51.658;5.658;2023-08-21T01:22:25;0.00;;;0.00;;
80698;SDS011;70062;51.658;5.658;2023-08-21T01:24:53;0.00;;;0.00;;
80698;SDS011;70062;51.658;5.658;2023-08-21T01:29:46;0.10;;;0.10;;
80698;SDS011;70062;51.658;5.658;2023-08-21T01:32:21;0.00;;;0.00;;
80698;SDS011;70062;51.658;5.658;2023-08-21T01:34:54;0.00;;;0.00;;
80698;SDS011;70062;51.658;5.658;2023-08-21T01:37:21;0.00;;;0.00;;
80698;SDS011;70062;51.658;5.658;2023-08-21T01:39:47;0.00;;;0.00;;
80698;SDS011;70062;51.658;5.658;2023-08-21T01:42:12;0.00;;;0.00;;
80698;SDS011;70062;51.658;5.658;2023-08-21T01:44:38;0.00;;;0.00;;
80698;SDS011;70062;51.658;5.658;2023-08-21T02:00:47;0.00;;;0.00;;
80698;SDS011;70062;51.658;5.658;2023-08-21T02:03:13;0.00;;;0.00;;
80698;SDS011;70062;51.658;5.658;2023-08-21T02:05:39;0.00;;;0.00;;
80698;SDS011;70062;51.658;5.658;2023-08-21T02:08:06;0.00;;;0.00;;
80698;SDS011;70062;51.658;5.658;2023-08-21T02:10:32;0.00;;;0.00;;
80698;SDS011;70062;51.658;5.658;2023-08-21T02:12:57;0.00;;;0.00;;
80698;SDS011;70062;51.658;5.658;2023-08-21T02:15:23;0.00;;;0.00;;
80698;SDS011;70062;51.658;5.658;2023-08-21T02:17:48;0.00;;;0.00;;
80698;SDS011;70062;51.658;5.658;2023-08-21T02:20:14;0.00;;;0.00;;
80698;SDS011;70062;51.658;5.658;2023-08-21T02:22:39;0.00;;;0.00;;
80698;SDS011;70062;51.658;5.658;2023-08-21T02:31:09;0.00;;;0.00;;
80698;SDS011;70062;51.658;5.658;2023-08-21T02:33:35;0.10;;;0.10;;
80698;SDS011;70062;51.658;5.658;2023-08-21T02:36:01;0.00;;;0.00;;
80698;SDS011;70062;51.658;5.658;2023-08-21T02:38:28;0.00;;;0.00;;
80698;SDS011;70062;51.658;5.658;2023-08-21T02:40:53;0.00;;;0.00;;
80698;SDS011;70062;51.658;5.658;2023-08-21T02:43:19;0.00;;;0.00;;
80698;SDS011;70062;51.658;5.658;2023-08-21T03:16:21;0.00;;;0.00;;
80698;SDS011;70062;51.658;5.658;2023-08-21T03:18:54;0.00;;;0.00;;
80698;SDS011;70062;51.658;5.658;2023-08-21T03:21:21;0.00;;;0.00;;
80698;SDS011;70062;51.658;5.658;2023-08-21T03:48:47;0.00;;;0.00;;
80698;SDS011;70062;51.658;5.658;2023-08-21T03:51:13;0.10;;;0.10;;
80698;SDS011;70062;51.658;5.658;2023-08-21T03:53:39;0.00;;;0.00;;
80698;SDS011;70062;51.658;5.658;2023-08-21T04:06:56;0.00;;;0.00;;
80698;SDS011;70062;51.658;5.658;2023-08-21T04:09:21;0.00;;;0.00;;
80698;SDS011;70062;51.658;5.658;2023-08-21T04:11:46;0.00;;;0.00;;
80698;SDS011;70062;51.658;5.658;2023-08-21T04:14:12;0.10;;;0.10;;
80698;SDS011;70062;51.658;5.658;2023-08-21T04:16:37;0.00;;;0.00;;
80698;SDS011;70062;51.658;5.658;2023-08-21T04:19:03;0.00;;;0.00;;
80698;SDS011;70062;51.658;5.658;2023-08-21T04:21:29;0.20;;;0.10;;
80698;SDS011;70062;51.658;5.658;2023-08-21T04:23:54;0.00;;;0.00;;
80698;SDS011;70062;51.658;5.658;2023-08-21T04:26:19;0.00;;;0.00;;
80698;SDS011;70062;51.658;5.658;2023-08-21T04:28:45;0.00;;;0.00;;
80698;SDS011;70062;51.658;5.658;2023-08-21T04:31:10;0.00;;;0.00;;
80698;SDS011;70062;51.658;5.658;2023-08-21T04:33:36;0.10;;;0.10;;
80698;SDS011;70062;51.658;5.658;2023-08-21T04:36:01;0.00;;;0.00;;
80698;SDS011;70062;51.658;5.658;2023-08-21T04:38:26;0.10;;;0.10;;
80698;SDS011;70062;51.658;5.658;2023-08-21T04:40:52;0.00;;;0.00;;
80698;SDS011;70062;51.658;5.658;2023-08-21T04:43:17;0.00;;;0.00;;
80698;SDS011;70062;51.658;5.658;2023-08-21T04:45:52;0.00;;;0.00;;
80698;SDS011;70062;51.658;5.658;2023-08-21T04:48:20;0.00;;;0.00;;
80698;SDS011;70062;51.658;5.658;2023-08-21T04:50:46;0.00;;;0.00;;
80698;SDS011;70062;51.658;5.658;2023-08-21T04:53:12;0.00;;;0.00;;
80698;SDS011;70062;51.658;5.658;2023-08-21T04:55:38;0.00;;;0.00;;
80698;SDS011;70062;51.658;5.658;2023-08-21T04:58:06;0.00;;;0.00;;
80698;SDS011;70062;51.658;5.658;2023-08-21T05:00:32;0.00;;;0.00;;
80698;SDS011;70062;51.658;5.658;2023-08-21T05:02:57;0.00;;;0.00;;
80698;SDS011;70062;51.658;5.658;2023-08-21T05:05:23;0.00;;;0.00;;
80698;SDS011;70062;51.658;5.658;2023-08-21T05:07:48;0.10;;;0.00;;
80698;SDS011;70062;51.658;5.658;2023-08-21T05:10:14;0.20;;;0.20;;
80698;SDS011;70062;51.658;5.658;2023-08-21T05:12:48;0.00;;;0.00;;
80698;SDS011;70062;51.658;5.658;2023-08-21T05:15:14;0.10;;;0.10;;
80698;SDS011;70062;51.658;5.658;2023-08-21T05:17:39;0.00;;;0.00;;
80698;SDS011;70062;51.658;5.658;2023-08-21T05:26:04;0.40;;;0.30;;
80698;SDS011;70062;51.658;5.658;2023-08-21T05:28:29;0.20;;;0.10;;
80698;SDS011;70062;51.658;5.658;2023-08-21T05:30:54;0.00;;;0.00;;
80698;SDS011;70062;51.658;5.658;2023-08-21T05:33:20;0.00;;;0.00;;
80698;SDS011;70062;51.658;5.658;2023-08-21T05:35:45;0.00;;;0.00;;
80698;SDS011;70062;51.658;5.658;2023-08-21T05:38:11;0.00;;;0.00;;
80698;SDS011;70062;51.658;5.658;2023-08-21T05:40:36;0.00;;;0.00;;
80698;SDS011;70062;51.658;5.658;2023-08-21T05:43:01;0.00;;;0.00;;
80698;SDS011;70062;51.658;5.658;2023-08-21T05:45:27;0.10;;;0.10;;
80698;SDS011;70062;51.658;5.658;2023-08-21T05:47:53;0.00;;;0.00;;
80698;SDS011;70062;51.658;5.658;2023-08-21T05:50:20;0.00;;;0.00;;
80698;SDS011;70062;51.658;5.658;2023-08-21T05:52:45;0.10;;;0.00;;
80698;SDS011;70062;51.658;5.658;2023-08-21T05:55:10;0.10;;;0.10;;
80698;SDS011;70062;51.658;5.658;2023-08-21T05:57:36;0.10;;;0.00;;
80698;SDS011;70062;51.658;5.658;2023-08-21T06:00:02;0.10;;;0.10;;
80698;SDS011;70062;51.658;5.658;2023-08-21T06:02:28;0.10;;;0.10;;
80698;SDS011;70062;51.658;5.658;2023-08-21T06:04:54;0.10;;;0.10;;
80698;SDS011;70062;51.658;5.658;2023-08-21T06:07:23;0.20;;;0.20;;
80698;SDS011;70062;51.658;5.658;2023-08-21T06:09:48;0.00;;;0.00;;
80698;SDS011;70062;51.658;5.658;2023-08-21T06:12:14;0.10;;;0.10;;
80698;SDS011;70062;51.658;5.658;2023-08-21T06:14:39;0.00;;;0.00;;
80698;SDS011;70062;51.658;5.658;2023-08-21T06:17:04;0.20;;;0.10;;
80698;SDS011;70062;51.658;5.658;2023-08-21T06:19:30;0.30;;;0.30;;
80698;SDS011;70062;51.658;5.658;2023-08-21T06:21:56;0.10;;;0.10;;
80698;SDS011;70062;51.658;5.658;2023-08-21T06:24:22;0.10;;;0.00;;
80698;SDS011;70062;51.658;5.658;2023-08-21T06:26:47;0.10;;;0.10;;
80698;SDS011;70062;51.658;5.658;2023-08-21T06:29:13;0.10;;;0.10;;
80698;SDS011;70062;51.658;5.658;2023-08-21T06:31:39;0.60;;;0.30;;
80698;SDS011;70062;51.658;5.658;2023-08-21T06:34:04;0.40;;;0.20;;
80698;SDS011;70062;51.658;5.658;2023-08-21T06:36:30;0.20;;;0.20;;
80698;SDS011;70062;51.658;5.658;2023-08-21T06:38:55;0.20;;;0.20;;
80698;SDS011;70062;51.658;5.658;2023-08-21T06:41:21;0.00;;;0.00;;
80698;SDS011;70062;51.658;5.658;2023-08-21T06:43:46;0.10;;;0.10;;
80698;SDS011;70062;51.658;5.658;2023-08-21T06:48:28;0.00;;;0.00;;
80698;SDS011;70062;51.658;5.658;2023-08-21T06:50:54;0.10;;;0.10;;
80698;SDS011;70062;51.658;5.658;2023-08-21T06:53:19;0.10;;;0.00;;
80698;SDS011;70062;51.658;5.658;2023-08-21T06:55:45;0.10;;;0.10;;
80698;SDS011;70062;51.658;5.658;2023-08-21T06:58:11;0.00;;;0.00;;
80698;SDS011;70062;51.658;5.658;2023-08-21T07:00:36;0.00;;;0.00;;
80698;SDS011;70062;51.658;5.658;2023-08-21T07:03:02;0.10;;;0.10;;
80698;SDS011;70062;51.658;5.658;2023-08-21T07:05:28;0.00;;;0.00;;
80698;SDS011;70062;51.658;5.658;2023-08-21T07:07:53;0.00;;;0.00;;
80698;SDS011;70062;51.658;5.658;2023-08-21T07:10:20;0.00;;;0.00;;
80698;SDS011;70062;51.658;5.658;2023-08-21T07:12:46;0.00;;;0.00;;
80698;SDS011;70062;51.658;5.658;2023-08-21T07:15:11;0.00;;;0.00;;
80698;SDS011;70062;51.658;5.658;2023-08-21T07:17:37;0.00;;;0.00;;
80698;SDS011;70062;51.658;5.658;2023-08-21T07:20:02;0.00;;;0.00;;
80698;SDS011;70062;51.658;5.658;2023-08-21T07:22:29;0.00;;;0.00;;
80698;SDS011;70062;51.658;5.658;2023-08-21T07:24:55;0.00;;;0.00;;
80698;SDS011;70062;51.658;5.658;2023-08-21T07:27:20;0.00;;;0.00;;
80698;SDS011;70062;51.658;5.658;2023-08-21T07:29:46;0.00;;;0.00;;
80698;SDS011;70062;51.658;5.658;2023-08-21T07:32:11;0.00;;;0.00;;
80698;SDS011;70062;51.658;5.658;2023-08-21T07:34:37;0.00;;;0.00;;
80698;SDS011;70062;51.658;5.658;2023-08-21T07:37:02;0.10;;;0.10;;
80698;SDS011;70062;51.658;5.658;2023-08-21T07:39:28;0.00;;;0.00;;
80698;SDS011;70062;51.658;5.658;2023-08-21T07:41:53;0.00;;;0.00;;
80698;SDS011;70062;51.658;5.658;2023-08-21T07:44:19;0.00;;;0.00;;
80698;SDS011;70062;51.658;5.658;2023-08-21T07:46:44;0.00;;;0.00;;
80698;SDS011;70062;51.658;5.658;2023-08-21T07:49:10;0.00;;;0.00;;
80698;SDS011;70062;51.658;5.658;2023-08-21T07:51:35;0.00;;;0.00;;
80698;SDS011;70062;51.658;5.658;2023-08-21T07:54:01;0.00;;;0.00;;
80698;SDS011;70062;51.658;5.658;2023-08-21T07:56:27;0.00;;;0.00;;
80698;SDS011;70062;51.658;5.658;2023-08-21T07:58:52;0.10;;;0.10;;
80698;SDS011;70062;51.658;5.658;2023-08-21T08:01:18;0.00;;;0.00;;
80698;SDS011;70062;51.658;5.658;2023-08-21T08:03:46;0.00;;;0.00;;
80698;SDS011;70062;51.658;5.658;2023-08-21T08:06:11;0.00;;;0.00;;
80698;SDS011;70062;51.658;5.658;2023-08-21T08:08:36;0.00;;;0.00;;
80698;SDS011;70062;51.658;5.658;2023-08-21T08:11:02;0.00;;;0.00;;
80698;SDS011;70062;51.658;5.658;2023-08-21T08:13:29;0.00;;;0.00;;
80698;SDS011;70062;51.658;5.658;2023-08-21T08:15:54;0.00;;;0.00;;
80698;SDS011;70062;51.658;5.658;2023-08-21T08:18:20;0.00;;;0.00;;
80698;SDS011;70062;51.658;5.658;2023-08-21T08:20:45;0.00;;;0.00;;
80698;SDS011;70062;51.658;5.658;2023-08-21T08:23:11;0.10;;;0.10;;
80698;SDS011;70062;51.658;5.658;2023-08-21T08:25:36;0.00;;;0.00;;
80698;SDS011;70062;51.658;5.658;2023-08-21T08:28:02;0.00;;;0.00;;
80698;SDS011;70062;51.658;5.658;2023-08-21T08:30:28;0.10;;;0.10;;
80698;SDS011;70062;51.658;5.658;2023-08-21T08:32:53;0.00;;;0.00;;
80698;SDS011;70062;51.658;5.658;2023-08-21T08:35:19;0.00;;;0.00;;
80698;SDS011;70062;51.658;5.658;2023-08-21T08:37:45;0.10;;;0.10;;
80698;SDS011;70062;51.658;5.658;2023-08-21T08:40:10;0.00;;;0.00;;
80698;SDS011;70062;51.658;5.658;2023-08-21T08:42:36;0.00;;;0.00;;
80698;SDS011;70062;51.658;5.658;2023-08-21T08:45:03;0.00;;;0.00;;
80698;SDS011;70062;51.658;5.658;2023-08-21T08:47:33;0.00;;;0.00;;
80698;SDS011;70062;51.658;5.658;2023-08-21T08:50:03;0.00;;;0.00;;
80698;SDS011;70062;51.658;5.658;2023-08-21T08:52:31;0.00;;;0.00;;
80698;SDS011;70062;51.658;5.658;2023-08-21T08:55:00;0.00;;;0.00;;
80698;SDS011;70062;51.658;5.658;2023-08-21T08:57:26;0.00;;;0.00;;
80698;SDS011;70062;51.658;5.658;2023-08-21T08:59:52;0.00;;;0.00;;
80698;SDS011;70062;51.658;5.658;2023-08-21T09:02:17;0.00;;;0.00;;
80698;SDS011;70062;51.658;5.658;2023-08-21T09:04:43;0.00;;;0.00;;
80698;SDS011;70062;51.658;5.658;2023-08-21T09:07:09;0.00;;;0.00;;
80698;SDS011;70062;51.658;5.658;2023-08-21T09:09:45;0.00;;;0.00;;
80698;SDS011;70062;51.658;5.658;2023-08-21T09:12:12;0.00;;;0.00;;
80698;SDS011;70062;51.658;5.658;2023-08-21T09:14:39;0.00;;;0.00;;
80698;SDS011;70062;51.658;5.658;2023-08-21T09:17:08;0.00;;;0.00;;
80698;SDS011;70062;51.658;5.658;2023-08-21T09:19:33;0.00;;;0.00;;
80698;SDS011;70062;51.658;5.658;2023-08-21T09:22:06;0.00;;;0.00;;
80698;SDS011;70062;51.658;5.658;2023-08-21T09:24:33;0.00;;;0.00;;
80698;SDS011;70062;51.658;5.658;2023-08-21T09:26:59;0.00;;;0.00;;
80698;SDS011;70062;51.658;5.658;2023-08-21T09:29:26;0.00;;;0.00;;
80698;SDS011;70062;51.658;5.658;2023-08-21T09:31:55;0.00;;;0.00;;
80698;SDS011;70062;51.658;5.658;2023-08-21T09:34:21;0.00;;;0.00;;
80698;SDS011;70062;51.658;5.658;2023-08-21T09:36:52;0.00;;;0.00;;
80698;SDS011;70062;51.658;5.658;2023-08-21T09:39:20;0.00;;;0.00;;
80698;SDS011;70062;51.658;5.658;2023-08-21T09:41:57;0.00;;;0.00;;
80698;SDS011;70062;51.658;5.658;2023-08-21T09:44:22;0.00;;;0.00;;
80698;SDS011;70062;51.658;5.658;2023-08-21T09:46:48;0.00;;;0.00;;
80698;SDS011;70062;51.658;5.658;2023-08-21T09:49:15;0.00;;;0.00;;
80698;SDS011;70062;51.658;5.658;2023-08-21T09:51:42;0.00;;;0.00;;
80698;SDS011;70062;51.658;5.658;2023-08-21T09:54:10;0.00;;;0.00;;
80698;SDS011;70062;51.658;5.658;2023-08-21T09:56:36;0.00;;;0.00;;
80698;SDS011;70062;51.658;5.658;2023-08-21T09:59:03;0.10;;;0.10;;
80698;SDS011;70062;51.658;5.658;2023-08-21T10:01:28;0.00;;;0.00;;
80698;SDS011;70062;51.658;5.658;2023-08-21T10:03:58;0.00;;;0.00;;
80698;SDS011;70062;51.658;5.658;2023-08-21T10:06:28;0.10;;;0.10;;
80698;SDS011;70062;51.658;5.658;2023-08-21T10:08:54;0.00;;;0.00;;
80698;SDS011;70062;51.658;5.658;2023-08-21T10:11:21;0.00;;;0.00;;
80698;SDS011;70062;51.658;5.658;2023-08-21T10:13:47;0.00;;;0.00;;
80698;SDS011;70062;51.658;5.658;2023-08-21T10:16:16;0.00;;;0.00;;
80698;SDS011;70062;51.658;5.658;2023-08-21T10:18:43;0.10;;;0.10;;
80698;SDS011;70062;51.658;5.658;2023-08-21T10:21:17;0.00;;;0.00;;
80698;SDS011;70062;51.658;5.658;2023-08-21T10:23:48;0.00;;;0.00;;
80698;SDS011;70062;51.658;5.658;2023-08-21T10:26:25;0.00;;;0.00;;
80698;SDS011;70062;51.658;5.658;2023-08-21T10:28:55;0.00;;;0.00;;
80698;SDS011;70062;51.658;5.658;2023-08-21T10:34:09;0.00;;;0.00;;
80698;SDS011;70062;51.658;5.658;2023-08-21T10:39:23;0.00;;;0.00;;
80698;SDS011;70062;51.658;5.658;2023-08-21T10:41:56;0.00;;;0.00;;
80698;SDS011;70062;51.658;5.658;2023-08-21T10:52:25;0.00;;;0.00;;
80698;SDS011;70062;51.658;5.658;2023-08-21T10:54:55;0.00;;;0.00;;
80698;SDS011;70062;51.658;5.658;2023-08-21T10:57:23;0.00;;;0.00;;
80698;SDS011;70062;51.658;5.658;2023-08-21T10:59:54;0.10;;;0.00;;
80698;SDS011;70062;51.658;5.658;2023-08-21T11:02:19;0.00;;;0.00;;
80698;SDS011;70062;51.658;5.658;2023-08-21T11:04:45;0.00;;;0.00;;
80698;SDS011;70062;51.658;5.658;2023-08-21T11:07:11;0.00;;;0.00;;
80698;SDS011;70062;51.658;5.658;2023-08-21T11:09:55;0.00;;;0.00;;
80698;SDS011;70062;51.658;5.658;2023-08-21T11:13:06;0.10;;;0.10;;
80698;SDS011;70062;51.658;5.658;2023-08-21T11:15:31;0.00;;;0.00;;
80698;SDS011;70062;51.658;5.658;2023-08-21T11:17:58;0.00;;;0.00;;
80698;SDS011;70062;51.658;5.658;2023-08-21T11:20:29;0.00;;;0.00;;
80698;SDS011;70062;51.658;5.658;2023-08-21T11:22:58;0.00;;;0.00;;
80698;SDS011;70062;51.658;5.658;2023-08-21T11:25:29;0.00;;;0.00;;
80698;SDS011;70062;51.658;5.658;2023-08-21T11:27:55;0.00;;;0.00;;
80698;SDS011;70062;51.658;5.658;2023-08-21T11:30:23;0.00;;;0.00;;
80698;SDS011;70062;51.658;5.658;2023-08-21T11:33:05;0.00;;;0.00;;
80698;SDS011;70062;51.658;5.658;2023-08-21T11:35:34;0.00;;;0.00;;
80698;SDS011;70062;51.658;5.658;2023-08-21T11:38:00;0.00;;;0.00;;
80698;SDS011;70062;51.658;5.658;2023-08-21T11:40:25;0.00;;;0.00;;
80698;SDS011;70062;51.658;5.658;2023-08-21T11:42:51;0.00;;;0.00;;
80698;SDS011;70062;51.658;5.658;2023-08-21T11:45:19;0.00;;;0.00;;
80698;SDS011;70062;51.658;5.658;2023-08-21T11:47:46;0.00;;;0.00;;
80698;SDS011;70062;51.658;5.658;2023-08-21T11:50:11;0.10;;;0.10;;
80698;SDS011;70062;51.658;5.658;2023-08-21T11:52:40;0.00;;;0.00;;
80698;SDS011;70062;51.658;5.658;2023-08-21T11:55:10;0.00;;;0.00;;
80698;SDS011;70062;51.658;5.658;2023-08-21T11:57:51;0.00;;;0.00;;
80698;SDS011;70062;51.658;5.658;2023-08-21T12:00:17;0.00;;;0.00;;
80698;SDS011;70062;51.658;5.658;2023-08-21T12:02:48;0.00;;;0.00;;
80698;SDS011;70062;51.658;5.658;2023-08-21T12:05:20;0.00;;;0.00;;
80698;SDS011;70062;51.658;5.658;2023-08-21T12:07:45;0.00;;;0.00;;
80698;SDS011;70062;51.658;5.658;2023-08-21T12:10:10;0.00;;;0.00;;
80698;SDS011;70062;51.658;5.658;2023-08-21T12:12:36;0.00;;;0.00;;
80698;SDS011;70062;51.658;5.658;2023-08-21T12:15:01;0.00;;;0.00;;
80698;SDS011;70062;51.658;5.658;2023-08-21T12:17:27;0.00;;;0.00;;
80698;SDS011;70062;51.658;5.658;2023-08-21T12:19:52;0.00;;;0.00;;
80698;SDS011;70062;51.658;5.658;2023-08-21T12:22:17;0.00;;;0.00;;
80698;SDS011;70062;51.658;5.658;2023-08-21T12:24:43;0.00;;;0.00;;
80698;SDS011;70062;51.658;5.658;2023-08-21T12:27:08;0.00;;;0.00;;
80698;SDS011;70062;51.658;5.658;2023-08-21T12:29:34;0.10;;;0.10;;
80698;SDS011;70062;51.658;5.658;2023-08-21T12:31:59;0.00;;;0.00;;
80698;SDS011;70062;51.658;5.658;2023-08-21T12:34:25;0.00;;;0.00;;
80698;SDS011;70062;51.658;5.658;2023-08-21T12:36:50;0.10;;;0.10;;
80698;SDS011;70062;51.658;5.658;2023-08-21T12:39:16;0.00;;;0.00;;
80698;SDS011;70062;51.658;5.658;2023-08-21T12:41:42;0.00;;;0.00;;
80698;SDS011;70062;51.658;5.658;2023-08-21T12:44:08;0.00;;;0.00;;
80698;SDS011;70062;51.658;5.658;2023-08-21T12:46:34;0.00;;;0.00;;
80698;SDS011;70062;51.658;5.658;2023-08-21T12:49:00;0.00;;;0.00;;
80698;SDS011;70062;51.658;5.658;2023-08-21T12:51:27;0.00;;;0.00;;
80698;SDS011;70062;51.658;5.658;2023-08-21T12:53:52;0.00;;;0.00;;
80698;SDS011;70062;51.658;5.658;2023-08-21T12:56:18;0.00;;;0.00;;
80698;SDS011;70062;51.658;5.658;2023-08-21T12:58:43;0.00;;;0.00;;
80698;SDS011;70062;51.658;5.658;2023-08-21T13:01:09;0.00;;;0.00;;
80698;SDS011;70062;51.658;5.658;2023-08-21T13:03:34;0.00;;;0.00;;
80698;SDS011;70062;51.658;5.658;2023-08-21T13:06:00;0.00;;;0.00;;
80698;SDS011;70062;51.658;5.658;2023-08-21T13:08:25;0.00;;;0.00;;
80698;SDS011;70062;51.658;5.658;2023-08-21T13:10:52;0.00;;;0.00;;
80698;SDS011;70062;51.658;5.658;2023-08-21T13:13:17;0.00;;;0.00;;
80698;SDS011;70062;51.658;5.658;2023-08-21T13:15:42;0.00;;;0.00;;
80698;SDS011;70062;51.658;5.658;2023-08-21T13:18:11;0.00;;;0.00;;
80698;SDS011;70062;51.658;5.658;2023-08-21T13:20:38;0.00;;;0.00;;
80698;SDS011;70062;51.658;5.658;2023-08-21T13:23:03;0.00;;;0.00;;
80698;SDS011;70062;51.658;5.658;2023-08-21T13:25:29;0.00;;;0.00;;
80698;SDS011;70062;51.658;5.658;2023-08-21T13:27:55;0.00;;;0.00;;
80698;SDS011;70062;51.658;5.658;2023-08-21T13:30:20;0.00;;;0.00;;
80698;SDS011;70062;51.658;5.658;2023-08-21T13:32:47;0.00;;;0.00;;
80698;SDS011;70062;51.658;5.658;2023-08-21T13:35:12;0.00;;;0.00;;
80698;SDS011;70062;51.658;5.658;2023-08-21T13:37:38;0.10;;;0.10;;
80698;SDS011;70062;51.658;5.658;2023-08-21T13:40:04;0.10;;;0.10;;
80698;SDS011;70062;51.658;5.658;2023-08-21T13:42:37;0.10;;;0.10;;
80698;SDS011;70062;51.658;5.658;2023-08-21T13:45:09;0.00;;;0.00;;
80698;SDS011;70062;51.658;5.658;2023-08-21T13:47:39;0.20;;;0.20;;
80698;SDS011;70062;51.658;5.658;2023-08-21T13:50:06;0.10;;;0.10;;
80698;SDS011;70062;51.658;5.658;2023-08-21T13:52:32;0.20;;;0.20;;
80698;SDS011;70062;51.658;5.658;2023-08-21T13:54:58;0.00;;;0.00;;
80698;SDS011;70062;51.658;5.658;2023-08-21T13:57:24;0.20;;;0.20;;
80698;SDS011;70062;51.658;5.658;2023-08-21T13:59:50;0.40;;;0.40;;
80698;SDS011;70062;51.658;5.658;2023-08-21T14:02:15;0.50;;;0.50;;
80698;SDS011;70062;51.658;5.658;2023-08-21T14:04:40;0.40;;;0.40;;
80698;SDS011;70062;51.658;5.658;2023-08-21T14:07:06;0.30;;;0.30;;
80698;SDS011;70062;51.658;5.658;2023-08-21T14:09:31;0.50;;;0.50;;
80698;SDS011;70062;51.658;5.658;2023-08-21T14:11:57;0.60;;;0.60;;
80698;SDS011;70062;51.658;5.658;2023-08-21T14:14:22;0.70;;;0.70;;
80698;SDS011;70062;51.658;5.658;2023-08-21T14:16:47;0.60;;;0.60;;
80698;SDS011;70062;51.658;5.658;2023-08-21T14:19:13;0.60;;;0.60;;
80698;SDS011;70062;51.658;5.658;2023-08-21T14:21:38;0.70;;;0.70;;
80698;SDS011;70062;51.658;5.658;2023-08-21T14:24:03;0.70;;;0.70;;
80698;SDS011;70062;51.658;5.658;2023-08-21T14:26:29;0.90;;;0.90;;
80698;SDS011;70062;51.658;5.658;2023-08-21T14:28:54;0.90;;;0.90;;
80698;SDS011;70062;51.658;5.658;2023-08-21T14:31:20;1.10;;;1.10;;
80698;SDS011;70062;51.658;5.658;2023-08-21T14:33:45;0.90;;;0.90;;
80698;SDS011;70062;51.658;5.658;2023-08-21T14:36:10;1.20;;;1.20;;
80698;SDS011;70062;51.658;5.658;2023-08-21T14:38:36;1.70;;;1.60;;
80698;SDS011;70062;51.658;5.658;2023-08-21T14:41:01;1.70;;;1.60;;
80698;SDS011;70062;51.658;5.658;2023-08-21T14:43:27;1.60;;;1.50;;
80698;SDS011;70062;51.658;5.658;2023-08-21T14:45:53;1.80;;;1.70;;
80698;SDS011;70062;51.658;5.658;2023-08-21T14:48:18;1.80;;;1.70;;
80698;SDS011;70062;51.658;5.658;2023-08-21T14:50:44;1.90;;;1.80;;
80698;SDS011;70062;51.658;5.658;2023-08-21T14:53:09;2.00;;;1.90;;
80698;SDS011;70062;51.658;5.658;2023-08-21T14:55:34;2.20;;;2.10;;
80698;SDS011;70062;51.658;5.658;2023-08-21T14:58:00;2.10;;;2.00;;
80698;SDS011;70062;51.658;5.658;2023-08-21T15:00:31;2.30;;;2.20;;
80698;SDS011;70062;51.658;5.658;2023-08-21T15:02:56;2.50;;;2.40;;
80698;SDS011;70062;51.658;5.658;2023-08-21T15:05:22;2.20;;;2.10;;
80698;SDS011;70062;51.658;5.658;2023-08-21T15:07:47;2.40;;;2.30;;
80698;SDS011;70062;51.658;5.658;2023-08-21T15:10:13;3.10;;;2.90;;
80698;SDS011;70062;51.658;5.658;2023-08-21T15:12:38;3.40;;;3.20;;
80698;SDS011;70062;51.658;5.658;2023-08-21T15:15:04;3.10;;;2.90;;
80698;SDS011;70062;51.658;5.658;2023-08-21T15:17:30;3.80;;;3.60;;
80698;SDS011;70062;51.658;5.658;2023-08-21T15:19:55;3.50;;;3.30;;
80698;SDS011;70062;51.658;5.658;2023-08-21T15:22:21;2.90;;;2.70;;
80698;SDS011;70062;51.658;5.658;2023-08-21T15:24:46;3.10;;;2.90;;
80698;SDS011;70062;51.658;5.658;2023-08-21T15:27:12;2.90;;;2.70;;
80698;SDS011;70062;51.658;5.658;2023-08-21T15:29:41;3.10;;;2.90;;
80698;SDS011;70062;51.658;5.658;2023-08-21T15:32:06;3.30;;;3.10;;
80698;SDS011;70062;51.658;5.658;2023-08-21T15:34:32;3.10;;;2.90;;
80698;SDS011;70062;51.658;5.658;2023-08-21T15:36:57;3.10;;;2.90;;
80698;SDS011;70062;51.658;5.658;2023-08-21T15:39:23;3.10;;;2.90;;
80698;SDS011;70062;51.658;5.658;2023-08-21T15:41:48;3.80;;;3.60;;
80698;SDS011;70062;51.658;5.658;2023-08-21T15:44:14;3.50;;;3.30;;
80698;SDS011;70062;51.658;5.658;2023-08-21T15:46:39;3.60;;;3.40;;
80698;SDS011;70062;51.658;5.658;2023-08-21T15:49:08;2.20;;;2.10;;
80698;SDS011;70062;51.658;5.658;2023-08-21T15:51:34;1.20;;;1.20;;
80698;SDS011;70062;51.658;5.658;2023-08-21T15:53:59;1.10;;;1.10;;
80698;SDS011;70062;51.658;5.658;2023-08-21T15:56:25;1.20;;;1.10;;
80698;SDS011;70062;51.658;5.658;2023-08-21T15:58:50;1.00;;;1.00;;
80698;SDS011;70062;51.658;5.658;2023-08-21T16:01:16;0.90;;;0.90;;
80698;SDS011;70062;51.658;5.658;2023-08-21T16:03:41;0.70;;;0.70;;
80698;SDS011;70062;51.658;5.658;2023-08-21T16:06:07;0.60;;;0.60;;
80698;SDS011;70062;51.658;5.658;2023-08-21T16:08:32;0.40;;;0.40;;
80698;SDS011;70062;51.658;5.658;2023-08-21T16:10:58;0.60;;;0.60;;
80698;SDS011;70062;51.658;5.658;2023-08-21T16:13:23;0.90;;;0.90;;
80698;SDS011;70062;51.658;5.658;2023-08-21T16:15:48;1.00;;;1.00;;
80698;SDS011;70062;51.658;5.658;2023-08-21T16:18:14;1.10;;;1.10;;
80698;SDS011;70062;51.658;5.658;2023-08-21T16:20:39;1.60;;;1.50;;
80698;SDS011;70062;51.658;5.658;2023-08-21T16:23:05;1.60;;;1.50;;
80698;SDS011;70062;51.658;5.658;2023-08-21T16:25:30;2.00;;;1.90;;
80698;SDS011;70062;51.658;5.658;2023-08-21T16:27:55;2.00;;;1.90;;
80698;SDS011;70062;51.658;5.658;2023-08-21T16:30:21;2.60;;;2.50;;
80698;SDS011;70062;51.658;5.658;2023-08-21T16:32:47;3.10;;;2.90;;
80698;SDS011;70062;51.658;5.658;2023-08-21T16:35:33;3.10;;;2.90;;
80698;SDS011;70062;51.658;5.658;2023-08-21T16:38:00;2.90;;;2.70;;
80698;SDS011;70062;51.658;5.658;2023-08-21T16:40:29;2.70;;;2.60;;
80698;SDS011;70062;51.658;5.658;2023-08-21T16:42:54;2.80;;;2.60;;